Palmerston North, New Zealand
Current Conditions -  °F | °C
As of 11:30 PM on Monday 20 Oct 2014 (Local Time) from NZWN Reporting Station
Overcast Overcast  
Wind Chill: 52°   Ceiling: 3900
Heat Index: 52°   Visibility: 6mi
Dew Point: 43°   Wind: 22mph
Humidity: 71%   Direction: 170°S
Pressure: 30.06"   Gusts: NA
Location:  40.36°S, 175.61°E
Report Text: NZWN 201130Z AUTO 17019KT 9999 FEW030/// BKN039/// OVC055///11/06 Q1018 TEMPO 6000 RA BKN014
Loading
Personal Weather Stations






























Interactive Weather Map
Tropical Storm Tracking
New forecast layout! Learn more

10-Day Weather Forecast

Advertisements
Track Severe Weather on mobile